Terminal Aerodrome Forecast
Issued by NWS Twin Cities, MN

Home | Current Version | Previous Version | Text Only | Print | Product List | Glossary On
Versions: 1 2 3 4 5 6 7 8 9 10 11 12 13 14
129
FTUS43 KMPX 271120
TAFSTC
TAF
KSTC 271120Z 2712/2812 11005KT P6SM -SHRA SCT040 OVC070
     FM271800 16008KT P6SM BKN050 PROB30 2723/2802 -TSRA BKN040CB
     FM280400 15003KT P6SM SCT200
     FM281000 12003KT 3SM BR BKN100=

USA.gov is the U.S. government's official web portal to all federal, state and local government web resources and services.